sensor_id;sensor_type;location;lat;lon;timestamp;temperature;humidity
17659;DHT22;8948;51.534;8.262;2023-07-29T00:03:43;20.70;73.70
17659;DHT22;8948;51.534;8.262;2023-07-29T00:08:44;20.70;75.20
17659;DHT22;8948;51.534;8.262;2023-07-29T00:13:44;20.70;74.90
17659;DHT22;8948;51.534;8.262;2023-07-29T00:18:45;20.70;74.80
17659;DHT22;8948;51.534;8.262;2023-07-29T00:23:46;20.80;74.40
17659;DHT22;8948;51.534;8.262;2023-07-29T00:28:46;20.80;74.70
17659;DHT22;8948;51.534;8.262;2023-07-29T00:33:47;20.80;75.10
17659;DHT22;8948;51.534;8.262;2023-07-29T00:38:47;20.80;75.30
17659;DHT22;8948;51.534;8.262;2023-07-29T00:43:48;20.80;74.90
17659;DHT22;8948;51.534;8.262;2023-07-29T00:48:48;20.70;75.10
17659;DHT22;8948;51.534;8.262;2023-07-29T00:53:49;20.60;75.20
17659;DHT22;8948;51.534;8.262;2023-07-29T00:58:50;20.60;75.30
17659;DHT22;8948;51.534;8.262;2023-07-29T01:03:52;20.60;75.10
17659;DHT22;8948;51.534;8.262;2023-07-29T01:09:01;20.60;74.90
17659;DHT22;8948;51.534;8.262;2023-07-29T01:14:21;20.50;75.20
17659;DHT22;8948;51.534;8.262;2023-07-29T01:24:54;20.50;74.80
17659;DHT22;8948;51.534;8.262;2023-07-29T01:29:55;20.50;75.00
17659;DHT22;8948;51.534;8.262;2023-07-29T01:35:03;20.40;74.30
17659;DHT22;8948;51.534;8.262;2023-07-29T01:40:07;20.40;74.60
17659;DHT22;8948;51.534;8.262;2023-07-29T01:45:09;20.30;75.00
17659;DHT22;8948;51.534;8.262;2023-07-29T01:50:09;20.30;75.00
17659;DHT22;8948;51.534;8.262;2023-07-29T01:55:10;20.20;75.40
17659;DHT22;8948;51.534;8.262;2023-07-29T02:00:11;20.20;74.80
17659;DHT22;8948;51.534;8.262;2023-07-29T02:05:12;20.20;75.30
17659;DHT22;8948;51.534;8.262;2023-07-29T02:10:12;20.20;75.80
17659;DHT22;8948;51.534;8.262;2023-07-29T02:15:13;20.20;75.30
17659;DHT22;8948;51.534;8.262;2023-07-29T02:20:13;20.20;76.00
17659;DHT22;8948;51.534;8.262;2023-07-29T02:25:14;20.20;75.70
17659;DHT22;8948;51.534;8.262;2023-07-29T02:30:15;20.20;76.00
17659;DHT22;8948;51.534;8.262;2023-07-29T02:35:16;20.20;76.10
17659;DHT22;8948;51.534;8.262;2023-07-29T02:40:16;20.20;76.30
17659;DHT22;8948;51.534;8.262;2023-07-29T02:45:17;20.20;76.80
17659;DHT22;8948;51.534;8.262;2023-07-29T02:50:17;20.20;76.80
17659;DHT22;8948;51.534;8.262;2023-07-29T02:55:18;20.20;75.80
17659;DHT22;8948;51.534;8.262;2023-07-29T03:00:18;20.20;76.90
17659;DHT22;8948;51.534;8.262;2023-07-29T03:05:19;20.20;76.90
17659;DHT22;8948;51.534;8.262;2023-07-29T03:10:19;20.20;77.60
17659;DHT22;8948;51.534;8.262;2023-07-29T03:15:23;20.10;78.00
17659;DHT22;8948;51.534;8.262;2023-07-29T03:20:25;20.00;78.50
17659;DHT22;8948;51.534;8.262;2023-07-29T03:25:26;20.00;78.50
17659;DHT22;8948;51.534;8.262;2023-07-29T03:30:26;20.00;78.30
17659;DHT22;8948;51.534;8.262;2023-07-29T03:35:27;20.00;78.60
17659;DHT22;8948;51.534;8.262;2023-07-29T03:40:27;20.00;77.70
17659;DHT22;8948;51.534;8.262;2023-07-29T03:45:28;20.00;78.40
17659;DHT22;8948;51.534;8.262;2023-07-29T03:50:29;20.10;77.70
17659;DHT22;8948;51.534;8.262;2023-07-29T03:55:31;20.00;78.00
17659;DHT22;8948;51.534;8.262;2023-07-29T04:00:31;20.00;78.10
17659;DHT22;8948;51.534;8.262;2023-07-29T04:05:32;19.90;78.10
17659;DHT22;8948;51.534;8.262;2023-07-29T04:10:33;20.00;78.70
17659;DHT22;8948;51.534;8.262;2023-07-29T04:15:35;20.00;78.60
17659;DHT22;8948;51.534;8.262;2023-07-29T04:20:36;20.00;78.30
17659;DHT22;8948;51.534;8.262;2023-07-29T04:25:37;20.00;78.30
17659;DHT22;8948;51.534;8.262;2023-07-29T04:30:37;20.00;78.10
17659;DHT22;8948;51.534;8.262;2023-07-29T04:35:38;20.10;78.30
17659;DHT22;8948;51.534;8.262;2023-07-29T04:40:38;20.20;75.60
17659;DHT22;8948;51.534;8.262;2023-07-29T04:45:43;20.30;76.40
17659;DHT22;8948;51.534;8.262;2023-07-29T04:50:44;20.40;75.50
17659;DHT22;8948;51.534;8.262;2023-07-29T04:55:44;20.50;74.00
17659;DHT22;8948;51.534;8.262;2023-07-29T05:00:47;20.60;75.10
17659;DHT22;8948;51.534;8.262;2023-07-29T05:05:48;20.60;75.80
17659;DHT22;8948;51.534;8.262;2023-07-29T05:10:49;20.60;73.70
17659;DHT22;8948;51.534;8.262;2023-07-29T05:15:50;20.70;74.50
17659;DHT22;8948;51.534;8.262;2023-07-29T05:20:51;20.70;74.80
17659;DHT22;8948;51.534;8.262;2023-07-29T05:25:51;20.60;74.80
17659;DHT22;8948;51.534;8.262;2023-07-29T05:30:52;20.60;77.10
17659;DHT22;8948;51.534;8.262;2023-07-29T05:35:53;20.60;77.40
17659;DHT22;8948;51.534;8.262;2023-07-29T05:40:53;20.60;77.30
17659;DHT22;8948;51.534;8.262;2023-07-29T05:45:54;20.50;78.00
17659;DHT22;8948;51.534;8.262;2023-07-29T05:50:54;20.50;77.90
17659;DHT22;8948;51.534;8.262;2023-07-29T05:55:55;20.40;77.40
17659;DHT22;8948;51.534;8.262;2023-07-29T06:00:55;20.40;77.80
17659;DHT22;8948;51.534;8.262;2023-07-29T06:05:56;20.30;78.10
17659;DHT22;8948;51.534;8.262;2023-07-29T06:10:56;20.30;78.90
17659;DHT22;8948;51.534;8.262;2023-07-29T06:15:57;20.50;79.90
17659;DHT22;8948;51.534;8.262;2023-07-29T06:20:58;20.60;79.10
17659;DHT22;8948;51.534;8.262;2023-07-29T06:25:58;20.70;79.20
17659;DHT22;8948;51.534;8.262;2023-07-29T06:31:01;20.80;77.40
17659;DHT22;8948;51.534;8.262;2023-07-29T06:36:01;20.80;77.40
17659;DHT22;8948;51.534;8.262;2023-07-29T06:41:02;20.90;77.00
17659;DHT22;8948;51.534;8.262;2023-07-29T06:46:03;21.00;76.50
17659;DHT22;8948;51.534;8.262;2023-07-29T06:51:03;20.90;78.00
17659;DHT22;8948;51.534;8.262;2023-07-29T06:56:04;20.80;78.00
17659;DHT22;8948;51.534;8.262;2023-07-29T07:01:05;20.70;77.60
17659;DHT22;8948;51.534;8.262;2023-07-29T07:06:05;20.80;77.90
17659;DHT22;8948;51.534;8.262;2023-07-29T07:11:06;20.80;77.30
17659;DHT22;8948;51.534;8.262;2023-07-29T07:16:06;21.00;77.70
17659;DHT22;8948;51.534;8.262;2023-07-29T07:21:07;21.00;77.90
17659;DHT22;8948;51.534;8.262;2023-07-29T07:26:08;20.90;77.90
17659;DHT22;8948;51.534;8.262;2023-07-29T07:31:08;20.80;78.50
17659;DHT22;8948;51.534;8.262;2023-07-29T07:36:09;20.80;78.10
17659;DHT22;8948;51.534;8.262;2023-07-29T07:41:09;20.60;76.30
17659;DHT22;8948;51.534;8.262;2023-07-29T07:46:10;20.30;75.60
17659;DHT22;8948;51.534;8.262;2023-07-29T07:51:11;20.20;74.80
17659;DHT22;8948;51.534;8.262;2023-07-29T07:56:12;20.20;74.80
17659;DHT22;8948;51.534;8.262;2023-07-29T08:01:13;20.20;73.90
17659;DHT22;8948;51.534;8.262;2023-07-29T08:06:13;20.30;73.50
17659;DHT22;8948;51.534;8.262;2023-07-29T08:11:14;20.50;72.70
17659;DHT22;8948;51.534;8.262;2023-07-29T08:16:14;20.40;72.80
17659;DHT22;8948;51.534;8.262;2023-07-29T08:21:15;20.40;74.10
17659;DHT22;8948;51.534;8.262;2023-07-29T08:26:16;20.30;72.40
17659;DHT22;8948;51.534;8.262;2023-07-29T08:31:17;20.40;72.80
17659;DHT22;8948;51.534;8.262;2023-07-29T08:36:17;20.60;71.30
17659;DHT22;8948;51.534;8.262;2023-07-29T08:41:36;21.10;71.70
17659;DHT22;8948;51.534;8.262;2023-07-29T08:46:39;21.70;67.70
17659;DHT22;8948;51.534;8.262;2023-07-29T08:51:42;22.40;69.00
17659;DHT22;8948;51.534;8.262;2023-07-29T08:56:43;22.90;66.30
17659;DHT22;8948;51.534;8.262;2023-07-29T09:01:44;22.90;62.10
17659;DHT22;8948;51.534;8.262;2023-07-29T09:06:45;22.20;62.40
17659;DHT22;8948;51.534;8.262;2023-07-29T09:11:48;22.20;62.30
17659;DHT22;8948;51.534;8.262;2023-07-29T09:16:49;22.30;61.50
17659;DHT22;8948;51.534;8.262;2023-07-29T09:21:49;22.80;62.80
17659;DHT22;8948;51.534;8.262;2023-07-29T09:26:50;22.90;58.70
17659;DHT22;8948;51.534;8.262;2023-07-29T09:31:51;22.70;58.20
17659;DHT22;8948;51.534;8.262;2023-07-29T09:36:51;22.90;59.00
17659;DHT22;8948;51.534;8.262;2023-07-29T09:41:52;23.00;58.80
17659;DHT22;8948;51.534;8.262;2023-07-29T09:46:53;23.00;58.00
17659;DHT22;8948;51.534;8.262;2023-07-29T09:51:56;23.10;58.50
17659;DHT22;8948;51.534;8.262;2023-07-29T09:56:56;23.40;56.10
17659;DHT22;8948;51.534;8.262;2023-07-29T10:01:57;23.90;57.10
17659;DHT22;8948;51.534;8.262;2023-07-29T10:06:59;24.10;54.30
17659;DHT22;8948;51.534;8.262;2023-07-29T10:12:00;24.60;57.00
17659;DHT22;8948;51.534;8.262;2023-07-29T10:17:02;24.50;55.00
17659;DHT22;8948;51.534;8.262;2023-07-29T10:22:03;24.60;55.20
17659;DHT22;8948;51.534;8.262;2023-07-29T10:27:06;24.60;55.10
17659;DHT22;8948;51.534;8.262;2023-07-29T10:32:08;25.10;55.40
17659;DHT22;8948;51.534;8.262;2023-07-29T10:37:09;25.40;51.30
17659;DHT22;8948;51.534;8.262;2023-07-29T10:42:10;25.60;52.10
17659;DHT22;8948;51.534;8.262;2023-07-29T10:47:20;25.10;53.20
17659;DHT22;8948;51.534;8.262;2023-07-29T10:57:38;24.50;54.30
17659;DHT22;8948;51.534;8.262;2023-07-29T11:02:40;24.30;52.70
17659;DHT22;8948;51.534;8.262;2023-07-29T11:07:45;24.50;53.60
17659;DHT22;8948;51.534;8.262;2023-07-29T11:12:50;24.40;54.30
17659;DHT22;8948;51.534;8.262;2023-07-29T11:17:54;24.70;55.10
17659;DHT22;8948;51.534;8.262;2023-07-29T11:22:56;24.80;53.30
17659;DHT22;8948;51.534;8.262;2023-07-29T11:27:57;24.90;53.20
17659;DHT22;8948;51.534;8.262;2023-07-29T11:32:59;25.20;53.50
17659;DHT22;8948;51.534;8.262;2023-07-29T11:37:59;25.00;53.20
17659;DHT22;8948;51.534;8.262;2023-07-29T11:43:00;25.00;55.90
17659;DHT22;8948;51.534;8.262;2023-07-29T11:48:04;24.80;54.40
17659;DHT22;8948;51.534;8.262;2023-07-29T11:53:05;25.00;54.60
17659;DHT22;8948;51.534;8.262;2023-07-29T11:58:05;24.80;53.00
17659;DHT22;8948;51.534;8.262;2023-07-29T12:03:06;25.30;54.60
17659;DHT22;8948;51.534;8.262;2023-07-29T12:08:09;25.20;53.60
17659;DHT22;8948;51.534;8.262;2023-07-29T12:13:09;25.00;54.40
17659;DHT22;8948;51.534;8.262;2023-07-29T12:18:12;24.50;55.30
17659;DHT22;8948;51.534;8.262;2023-07-29T12:23:12;24.40;56.00
17659;DHT22;8948;51.534;8.262;2023-07-29T12:28:13;25.30;54.60
17659;DHT22;8948;51.534;8.262;2023-07-29T12:33:32;25.90;55.00
17659;DHT22;8948;51.534;8.262;2023-07-29T12:38:33;26.60;51.50
17659;DHT22;8948;51.534;8.262;2023-07-29T12:43:34;25.90;51.90
17659;DHT22;8948;51.534;8.262;2023-07-29T12:48:35;25.40;52.90
17659;DHT22;8948;51.534;8.262;2023-07-29T12:53:36;25.50;54.20
17659;DHT22;8948;51.534;8.262;2023-07-29T12:58:36;25.80;53.10
17659;DHT22;8948;51.534;8.262;2023-07-29T13:03:37;25.90;55.70
17659;DHT22;8948;51.534;8.262;2023-07-29T13:08:37;26.30;50.90
17659;DHT22;8948;51.534;8.262;2023-07-29T13:13:38;26.90;53.70
17659;DHT22;8948;51.534;8.262;2023-07-29T13:18:39;27.40;52.20
17659;DHT22;8948;51.534;8.262;2023-07-29T13:23:40;27.90;51.50
17659;DHT22;8948;51.534;8.262;2023-07-29T13:28:40;28.30;48.00
17659;DHT22;8948;51.534;8.262;2023-07-29T13:33:41;28.50;49.30
17659;DHT22;8948;51.534;8.262;2023-07-29T13:38:41;28.40;49.70
17659;DHT22;8948;51.534;8.262;2023-07-29T13:43:42;28.90;49.70
17659;DHT22;8948;51.534;8.262;2023-07-29T13:48:42;28.40;46.90
17659;DHT22;8948;51.534;8.262;2023-07-29T13:53:43;27.10;50.10
17659;DHT22;8948;51.534;8.262;2023-07-29T13:58:43;26.60;52.10
17659;DHT22;8948;51.534;8.262;2023-07-29T14:03:44;26.70;51.30
17659;DHT22;8948;51.534;8.262;2023-07-29T14:08:44;27.20;48.50
17659;DHT22;8948;51.534;8.262;2023-07-29T14:13:45;27.60;50.10
17659;DHT22;8948;51.534;8.262;2023-07-29T14:18:45;28.10;49.60
17659;DHT22;8948;51.534;8.262;2023-07-29T14:23:46;28.80;47.00
17659;DHT22;8948;51.534;8.262;2023-07-29T14:28:47;28.70;47.40
17659;DHT22;8948;51.534;8.262;2023-07-29T14:33:47;28.50;47.40
17659;DHT22;8948;51.534;8.262;2023-07-29T14:38:48;27.70;48.20
17659;DHT22;8948;51.534;8.262;2023-07-29T14:43:48;27.40;48.80
17659;DHT22;8948;51.534;8.262;2023-07-29T14:48:49;26.80;49.30
17659;DHT22;8948;51.534;8.262;2023-07-29T14:53:49;26.30;51.10
17659;DHT22;8948;51.534;8.262;2023-07-29T14:58:50;26.00;51.80
17659;DHT22;8948;51.534;8.262;2023-07-29T15:03:51;25.60;51.20
17659;DHT22;8948;51.534;8.262;2023-07-29T15:08:51;25.30;51.50
17659;DHT22;8948;51.534;8.262;2023-07-29T15:13:52;25.00;52.10
17659;DHT22;8948;51.534;8.262;2023-07-29T15:18:52;24.90;53.00
17659;DHT22;8948;51.534;8.262;2023-07-29T15:23:53;24.60;53.90
17659;DHT22;8948;51.534;8.262;2023-07-29T15:28:53;24.30;55.90
17659;DHT22;8948;51.534;8.262;2023-07-29T15:33:54;24.00;56.80
17659;DHT22;8948;51.534;8.262;2023-07-29T15:38:54;23.60;57.50
17659;DHT22;8948;51.534;8.262;2023-07-29T15:43:55;23.50;59.10
17659;DHT22;8948;51.534;8.262;2023-07-29T15:48:56;23.10;60.10
17659;DHT22;8948;51.534;8.262;2023-07-29T15:53:59;22.40;61.00
17659;DHT22;8948;51.534;8.262;2023-07-29T15:59:00;21.90;62.50
17659;DHT22;8948;51.534;8.262;2023-07-29T16:04:00;21.60;62.30
17659;DHT22;8948;51.534;8.262;2023-07-29T16:09:01;21.70;63.60
17659;DHT22;8948;51.534;8.262;2023-07-29T16:14:06;22.90;61.90
17659;DHT22;8948;51.534;8.262;2023-07-29T16:19:07;23.50;60.00
17659;DHT22;8948;51.534;8.262;2023-07-29T16:24:09;23.40;61.30
17659;DHT22;8948;51.534;8.262;2023-07-29T16:29:10;23.30;61.80
17659;DHT22;8948;51.534;8.262;2023-07-29T16:34:10;23.40;60.10
17659;DHT22;8948;51.534;8.262;2023-07-29T16:39:11;23.90;58.20
17659;DHT22;8948;51.534;8.262;2023-07-29T16:44:11;24.00;59.60
17659;DHT22;8948;51.534;8.262;2023-07-29T16:49:12;24.20;59.40
17659;DHT22;8948;51.534;8.262;2023-07-29T16:54:12;24.20;57.30
17659;DHT22;8948;51.534;8.262;2023-07-29T16:59:17;24.10;59.50
17659;DHT22;8948;51.534;8.262;2023-07-29T17:04:18;24.20;58.60
17659;DHT22;8948;51.534;8.262;2023-07-29T17:09:19;24.30;58.50
17659;DHT22;8948;51.534;8.262;2023-07-29T17:14:19;24.30;59.70
17659;DHT22;8948;51.534;8.262;2023-07-29T17:19:21;24.30;59.10
17659;DHT22;8948;51.534;8.262;2023-07-29T17:24:22;24.10;59.30
17659;DHT22;8948;51.534;8.262;2023-07-29T17:29:24;24.10;59.10
17659;DHT22;8948;51.534;8.262;2023-07-29T17:34:25;23.90;60.80
17659;DHT22;8948;51.534;8.262;2023-07-29T17:39:25;24.00;60.80
17659;DHT22;8948;51.534;8.262;2023-07-29T17:44:26;24.20;60.50
17659;DHT22;8948;51.534;8.262;2023-07-29T17:49:27;24.10;60.90
17659;DHT22;8948;51.534;8.262;2023-07-29T17:54:28;24.00;60.70
17659;DHT22;8948;51.534;8.262;2023-07-29T17:59:28;23.80;61.30
17659;DHT22;8948;51.534;8.262;2023-07-29T18:04:29;23.70;61.40
17659;DHT22;8948;51.534;8.262;2023-07-29T18:09:30;23.60;62.20
17659;DHT22;8948;51.534;8.262;2023-07-29T18:14:30;23.50;62.20
17659;DHT22;8948;51.534;8.262;2023-07-29T18:19:31;23.50;62.30
17659;DHT22;8948;51.534;8.262;2023-07-29T18:24:33;23.60;62.50
17659;DHT22;8948;51.534;8.262;2023-07-29T18:29:33;23.60;62.50
17659;DHT22;8948;51.534;8.262;2023-07-29T18:34:34;23.40;63.20
17659;DHT22;8948;51.534;8.262;2023-07-29T18:39:34;23.40;63.20
17659;DHT22;8948;51.534;8.262;2023-07-29T18:44:35;23.40;63.20
17659;DHT22;8948;51.534;8.262;2023-07-29T18:49:36;23.40;62.90
17659;DHT22;8948;51.534;8.262;2023-07-29T18:54:38;23.30;62.80
17659;DHT22;8948;51.534;8.262;2023-07-29T18:59:39;23.30;63.10
17659;DHT22;8948;51.534;8.262;2023-07-29T19:04:40;23.20;63.00
17659;DHT22;8948;51.534;8.262;2023-07-29T19:09:44;23.20;62.70
17659;DHT22;8948;51.534;8.262;2023-07-29T19:14:45;23.10;62.80
17659;DHT22;8948;51.534;8.262;2023-07-29T19:19:46;23.10;62.20
17659;DHT22;8948;51.534;8.262;2023-07-29T19:24:47;22.90;61.90
17659;DHT22;8948;51.534;8.262;2023-07-29T19:29:48;22.90;62.00
17659;DHT22;8948;51.534;8.262;2023-07-29T19:34:53;22.80;62.50
17659;DHT22;8948;51.534;8.262;2023-07-29T19:39:57;22.70;62.80
17659;DHT22;8948;51.534;8.262;2023-07-29T19:44:58;22.60;62.90
17659;DHT22;8948;51.534;8.262;2023-07-29T19:49:59;22.50;62.70
17659;DHT22;8948;51.534;8.262;2023-07-29T19:54:59;22.40;63.10
17659;DHT22;8948;51.534;8.262;2023-07-29T20:00:00;22.40;63.50
17659;DHT22;8948;51.534;8.262;2023-07-29T20:05:00;22.30;63.70
17659;DHT22;8948;51.534;8.262;2023-07-29T20:10:01;22.30;63.00
17659;DHT22;8948;51.534;8.262;2023-07-29T20:15:02;22.20;63.00
17659;DHT22;8948;51.534;8.262;2023-07-29T20:20:03;22.20;63.70
17659;DHT22;8948;51.534;8.262;2023-07-29T20:25:04;22.10;64.60
17659;DHT22;8948;51.534;8.262;2023-07-29T20:30:05;22.10;65.40
17659;DHT22;8948;51.534;8.262;2023-07-29T20:35:06;21.90;65.60
17659;DHT22;8948;51.534;8.262;2023-07-29T20:40:07;21.90;65.80
17659;DHT22;8948;51.534;8.262;2023-07-29T20:45:09;21.90;66.30
17659;DHT22;8948;51.534;8.262;2023-07-29T20:50:09;21.90;66.10
17659;DHT22;8948;51.534;8.262;2023-07-29T20:55:10;21.80;65.90
17659;DHT22;8948;51.534;8.262;2023-07-29T21:00:11;21.70;66.30
17659;DHT22;8948;51.534;8.262;2023-07-29T21:05:11;21.70;66.00
17659;DHT22;8948;51.534;8.262;2023-07-29T21:10:12;21.60;66.10
17659;DHT22;8948;51.534;8.262;2023-07-29T21:15:12;21.50;65.90
17659;DHT22;8948;51.534;8.262;2023-07-29T21:20:13;21.40;66.00
17659;DHT22;8948;51.534;8.262;2023-07-29T21:25:13;21.30;65.80
17659;DHT22;8948;51.534;8.262;2023-07-29T21:30:14;21.10;66.70
17659;DHT22;8948;51.534;8.262;2023-07-29T21:35:15;21.00;66.60
17659;DHT22;8948;51.534;8.262;2023-07-29T21:40:15;20.80;66.70
17659;DHT22;8948;51.534;8.262;2023-07-29T21:45:16;20.70;67.10
17659;DHT22;8948;51.534;8.262;2023-07-29T21:50:16;20.70;67.30
17659;DHT22;8948;51.534;8.262;2023-07-29T21:55:17;20.70;67.20
17659;DHT22;8948;51.534;8.262;2023-07-29T22:00:18;20.70;67.30
17659;DHT22;8948;51.534;8.262;2023-07-29T22:05:19;20.50;67.70
17659;DHT22;8948;51.534;8.262;2023-07-29T22:10:19;20.50;67.80
17659;DHT22;8948;51.534;8.262;2023-07-29T22:15:20;20.40;68.00
17659;DHT22;8948;51.534;8.262;2023-07-29T22:20:20;20.40;68.20
17659;DHT22;8948;51.534;8.262;2023-07-29T22:25:21;20.50;68.40
17659;DHT22;8948;51.534;8.262;2023-07-29T22:30:22;20.50;68.30
17659;DHT22;8948;51.534;8.262;2023-07-29T22:35:23;20.60;68.70
17659;DHT22;8948;51.534;8.262;2023-07-29T22:40:23;20.60;68.80
17659;DHT22;8948;51.534;8.262;2023-07-29T22:45:24;20.70;68.10
17659;DHT22;8948;51.534;8.262;2023-07-29T22:50:24;20.70;68.00
17659;DHT22;8948;51.534;8.262;2023-07-29T22:55:25;20.50;69.20
17659;DHT22;8948;51.534;8.262;2023-07-29T23:00:25;20.30;70.10
17659;DHT22;8948;51.534;8.262;2023-07-29T23:05:26;20.30;69.90
17659;DHT22;8948;51.534;8.262;2023-07-29T23:10:27;20.30;70.40
17659;DHT22;8948;51.534;8.262;2023-07-29T23:15:36;20.30;70.40
17659;DHT22;8948;51.534;8.262;2023-07-29T23:20:37;20.40;69.70
17659;DHT22;8948;51.534;8.262;2023-07-29T23:25:37;20.50;69.80
17659;DHT22;8948;51.534;8.262;2023-07-29T23:30:38;20.50;70.00
17659;DHT22;8948;51.534;8.262;2023-07-29T23:35:38;20.50;70.10
17659;DHT22;8948;51.534;8.262;2023-07-29T23:40:39;20.50;70.10
17659;DHT22;8948;51.534;8.262;2023-07-29T23:45:39;20.30;70.60
17659;DHT22;8948;51.534;8.262;2023-07-29T23:50:40;20.20;70.80
17659;DHT22;8948;51.534;8.262;2023-07-29T23:55:40;20.10;71.20
